Makita — V2ET2 — position and weather

sailwx.info

Track history (hours):
 
Tides and Currents Weather Stations Pressure Air Temp Water Temp Dewpoint Dewpoint Depression Visibility Wind Speed Wind Dir Waves Ship Positions

Makita

Last reported at 2014-Dec-14 16:07 UTC. Time now 2014-Dec-17 23:19 UTC.
Position N 30°35' E 122°49'.

Length 260 m; draft 7.8 m.

Type: Cargo ship. MMSI: 305543000.

Date/timePositionNaut miles runAvg speedWind from/ knotsBaromVisibWave heightAir tempDewpointWater temp
2014-Dec-14 16:07N 30°35' E 122°49'43 9.4
2014-Dec-14 11:34N 31°07' E 122°17'1212.0
2014-Dec-14 10:34N 31°14' E 122°05'1313.1
2014-Dec-14 09:33N 31°17' E 121°50'10 9.5
2014-Dec-14 08:33N 31°20' E 121°40'0 0.0
2014-Dec-14 07:33N 31°20' E 121°40'0 0.0
2014-Dec-14 06:33N 31°20' E 121°40'0 0.0
2014-Dec-14 05:33N 31°20' E 121°40'0 0.0
2014-Dec-14 04:27N 31°20' E 121°40'0 0.0
2014-Dec-14 03:33N 31°20' E 121°40'0 0.0
2014-Dec-14 02:30N 31°20' E 121°40'0 0.0
2014-Dec-14 01:30N 31°20' E 121°40'0 0.0
2014-Dec-14 00:33N 31°20' E 121°40'0 0.0
2014-Dec-13 23:33N 31°20' E 121°40'0 0.0
2014-Dec-13 22:33N 31°20' E 121°40'0 0.0
2014-Dec-13 21:33N 31°20' E 121°40'0 0.0
2014-Dec-13 20:33N 31°20' E 121°40'3 3.2
2014-Dec-13 19:33N 31°19' E 121°44'1010.0
2014-Dec-13 18:34N 31°16' E 121°54'1211.9
2014-Dec-13 17:33N 31°12' E 122°08'1212.0
2014-Dec-13 16:33N 31°06' E 122°20'9 8.8
2014-Dec-13 15:33N 31°10' E 122°30'95 3.4
2014-Dec-12 11:27N 29°36' E 122°46'22 9.4
2014-Dec-12 09:07N 29°16' E 122°36'8 9.4
2014-Dec-12 08:18N 29°09' E 122°32'378 9.5
2014-Dec-10 16:31N 23°60' E 118°28'1515.6
2014-Dec-10 15:33N 23°51' E 118°15'1715.8
2014-Dec-10 14:29N 23°41' E 117°60'1715.5
2014-Dec-10 13:22N 23°30' E 117°45'  
2014-Dec-06 13:23N 01°16' E 104°11'1416.5
2014-Dec-06 12:33N 01°14' E 103°57'1211.1
2014-Dec-06 11:30N 01°16' E 103°46'1 0.7
2014-Dec-06 09:29N 01°17' E 103°46'0 0.0
2014-Dec-06 08:29N 01°17' E 103°46'0 0.0
2014-Dec-06 07:29N 01°17' E 103°46'0 0.0
2014-Dec-06 06:20N 01°17' E 103°46'0 0.0
2014-Dec-06 05:14N 01°17' E 103°46'0 0.0
2014-Dec-06 04:26N 01°17' E 103°46'0 0.0
2014-Dec-06 03:05N 01°17' E 103°46'0 0.0
2014-Dec-06 02:17N 01°17' E 103°46'0 0.0
2014-Dec-06 01:23N 01°17' E 103°46'0 0.0
2014-Dec-06 00:23N 01°17' E 103°46'0 0.0
2014-Dec-05 23:32N 01°17' E 103°46'0 0.0
2014-Dec-05 22:29N 01°17' E 103°46'0 0.0
2014-Dec-05 21:29N 01°17' E 103°46'0 0.0
2014-Dec-05 20:29N 01°17' E 103°46'0 0.0
2014-Dec-05 19:29N 01°17' E 103°46'0 0.0
2014-Dec-05 18:32N 01°17' E 103°46'0 0.0
2014-Dec-05 17:08N 01°17' E 103°46'0 0.0
2014-Dec-05 16:20N 01°17' E 103°46'0 0.0
2014-Dec-05 15:26N 01°17' E 103°46'1 0.9
2014-Dec-05 14:30N 01°16' E 103°45'3 2.4
2014-Dec-05 13:22N 01°14' E 103°47'0 0.0
2014-Dec-05 12:16N 01°14' E 103°47'0 0.0
2014-Dec-05 11:31N 01°14' E 103°47'0 0.2
2014-Dec-05 10:28N 01°14' E 103°47'0 0.1
2014-Dec-05 09:28N 01°14' E 103°47'0 0.0
2014-Dec-05 08:31N 01°14' E 103°47'0 0.0
2014-Dec-05 07:28N 01°14' E 103°47'0 0.0
2014-Dec-05 06:28N 01°14' E 103°47'0 0.0
2014-Dec-05 05:31N 01°14' E 103°47'0 0.1
2014-Dec-05 04:25N 01°14' E 103°47'0 0.0
2014-Dec-05 00:07N 01°14' E 103°47'0 0.1
2014-Dec-04 23:25N 01°14' E 103°47'0 0.0
2014-Dec-04 20:13N 01°14' E 103°47'0 0.0
2014-Dec-04 19:31N 01°14' E 103°47'0 0.0
2014-Dec-04 17:07N 01°14' E 103°47'0 0.0
2014-Dec-04 16:13N 01°14' E 103°47'  
Track history (hours):
 
Tides and Currents Weather Stations Pressure Air Temp Water Temp Dewpoint Dewpoint Depression Visibility Wind Speed Wind Dir Waves Ship Positions

Makita

Last reported at 2014-Dec-14 16:07 UTC. Time now 2014-Dec-17 23:19 UTC.
Position N 30°35' E 122°49'.

Length 260 m; draft 7.8 m.

Type: Cargo ship. MMSI: 305543000.

Date/timePositionNaut miles runAvg speedWind from/ knotsBaromVisibWave heightAir tempDewpointWater temp
2014-Dec-14 16:07N 30°35' E 122°49'43 9.4
2014-Dec-14 11:34N 31°07' E 122°17'1212.0
2014-Dec-14 10:34N 31°14' E 122°05'1313.1
2014-Dec-14 09:33N 31°17' E 121°50'10 9.5
2014-Dec-14 08:33N 31°20' E 121°40'0 0.0
2014-Dec-14 07:33N 31°20' E 121°40'0 0.0
2014-Dec-14 06:33N 31°20' E 121°40'0 0.0
2014-Dec-14 05:33N 31°20' E 121°40'0 0.0
2014-Dec-14 04:27N 31°20' E 121°40'0 0.0
2014-Dec-14 03:33N 31°20' E 121°40'0 0.0
2014-Dec-14 02:30N 31°20' E 121°40'0 0.0
2014-Dec-14 01:30N 31°20' E 121°40'0 0.0
2014-Dec-14 00:33N 31°20' E 121°40'0 0.0
2014-Dec-13 23:33N 31°20' E 121°40'0 0.0
2014-Dec-13 22:33N 31°20' E 121°40'0 0.0
2014-Dec-13 21:33N 31°20' E 121°40'0 0.0
2014-Dec-13 20:33N 31°20' E 121°40'3 3.2
2014-Dec-13 19:33N 31°19' E 121°44'1010.0
2014-Dec-13 18:34N 31°16' E 121°54'1211.9
2014-Dec-13 17:33N 31°12' E 122°08'1212.0
2014-Dec-13 16:33N 31°06' E 122°20'9 8.8
2014-Dec-13 15:33N 31°10' E 122°30'95 3.4
2014-Dec-12 11:27N 29°36' E 122°46'22 9.4
2014-Dec-12 09:07N 29°16' E 122°36'8 9.4
2014-Dec-12 08:18N 29°09' E 122°32'378 9.5
2014-Dec-10 16:31N 23°60' E 118°28'1515.6
2014-Dec-10 15:33N 23°51' E 118°15'1715.8
2014-Dec-10 14:29N 23°41' E 117°60'1715.5
2014-Dec-10 13:22N 23°30' E 117°45'  
2014-Dec-06 13:23N 01°16' E 104°11'1416.5
2014-Dec-06 12:33N 01°14' E 103°57'1211.1
2014-Dec-06 11:30N 01°16' E 103°46'1 0.7
2014-Dec-06 09:29N 01°17' E 103°46'0 0.0
2014-Dec-06 08:29N 01°17' E 103°46'0 0.0
2014-Dec-06 07:29N 01°17' E 103°46'0 0.0
2014-Dec-06 06:20N 01°17' E 103°46'0 0.0
2014-Dec-06 05:14N 01°17' E 103°46'0 0.0
2014-Dec-06 04:26N 01°17' E 103°46'0 0.0
2014-Dec-06 03:05N 01°17' E 103°46'0 0.0
2014-Dec-06 02:17N 01°17' E 103°46'0 0.0
2014-Dec-06 01:23N 01°17' E 103°46'0 0.0
2014-Dec-06 00:23N 01°17' E 103°46'0 0.0
2014-Dec-05 23:32N 01°17' E 103°46'0 0.0
2014-Dec-05 22:29N 01°17' E 103°46'0 0.0
2014-Dec-05 21:29N 01°17' E 103°46'0 0.0
2014-Dec-05 20:29N 01°17' E 103°46'0 0.0
2014-Dec-05 19:29N 01°17' E 103°46'0 0.0
2014-Dec-05 18:32N 01°17' E 103°46'0 0.0
2014-Dec-05 17:08N 01°17' E 103°46'0 0.0
2014-Dec-05 16:20N 01°17' E 103°46'0 0.0
2014-Dec-05 15:26N 01°17' E 103°46'1 0.9
2014-Dec-05 14:30N 01°16' E 103°45'3 2.4
2014-Dec-05 13:22N 01°14' E 103°47'0 0.0
2014-Dec-05 12:16N 01°14' E 103°47'0 0.0
2014-Dec-05 11:31N 01°14' E 103°47'0 0.2
2014-Dec-05 10:28N 01°14' E 103°47'0 0.1
2014-Dec-05 09:28N 01°14' E 103°47'0 0.0
2014-Dec-05 08:31N 01°14' E 103°47'0 0.0
2014-Dec-05 07:28N 01°14' E 103°47'0 0.0
2014-Dec-05 06:28N 01°14' E 103°47'0 0.0
2014-Dec-05 05:31N 01°14' E 103°47'0 0.1
2014-Dec-05 04:25N 01°14' E 103°47'0 0.0
2014-Dec-05 00:07N 01°14' E 103°47'0 0.1
2014-Dec-04 23:25N 01°14' E 103°47'0 0.0
2014-Dec-04 20:13N 01°14' E 103°47'0 0.0
2014-Dec-04 19:31N 01°14' E 103°47'0 0.0
2014-Dec-04 17:07N 01°14' E 103°47'0 0.0
2014-Dec-04 16:13N 01°14' E 103°47'  

Dump ship's entire track history